sensor_id;sensor_type;location;lat;lon;timestamp;temperature;humidity
54431;DHT22;40342;52.998;5.862;2023-04-15T00:00:42;7.90;99.90
54431;DHT22;40342;52.998;5.862;2023-04-15T00:03:07;7.90;99.90
54431;DHT22;40342;52.998;5.862;2023-04-15T00:05:33;7.90;99.90
54431;DHT22;40342;52.998;5.862;2023-04-15T00:07:59;7.80;99.90
54431;DHT22;40342;52.998;5.862;2023-04-15T00:10:26;7.80;99.90
54431;DHT22;40342;52.998;5.862;2023-04-15T00:12:52;7.80;99.90
54431;DHT22;40342;52.998;5.862;2023-04-15T00:15:18;7.80;99.90
54431;DHT22;40342;52.998;5.862;2023-04-15T00:17:43;7.70;99.90
54431;DHT22;40342;52.998;5.862;2023-04-15T00:20:09;7.70;99.90
54431;DHT22;40342;52.998;5.862;2023-04-15T00:22:35;7.70;99.90
54431;DHT22;40342;52.998;5.862;2023-04-15T00:25:01;7.70;99.90
54431;DHT22;40342;52.998;5.862;2023-04-15T00:27:27;7.60;99.90
54431;DHT22;40342;52.998;5.862;2023-04-15T00:29:53;7.70;99.90
54431;DHT22;40342;52.998;5.862;2023-04-15T00:32:19;7.60;99.90
54431;DHT22;40342;52.998;5.862;2023-04-15T00:34:45;7.60;99.90
54431;DHT22;40342;52.998;5.862;2023-04-15T00:37:10;7.60;99.90
54431;DHT22;40342;52.998;5.862;2023-04-15T00:39:37;7.50;99.90
54431;DHT22;40342;52.998;5.862;2023-04-15T00:42:03;7.50;99.90
54431;DHT22;40342;52.998;5.862;2023-04-15T00:44:29;7.50;99.90
54431;DHT22;40342;52.998;5.862;2023-04-15T00:46:56;7.50;99.90
54431;DHT22;40342;52.998;5.862;2023-04-15T00:49:21;7.50;99.90
54431;DHT22;40342;52.998;5.862;2023-04-15T00:51:48;7.50;99.90
54431;DHT22;40342;52.998;5.862;2023-04-15T00:54:13;7.40;99.90
54431;DHT22;40342;52.998;5.862;2023-04-15T00:56:39;7.40;99.90
54431;DHT22;40342;52.998;5.862;2023-04-15T00:59:05;7.40;99.90
54431;DHT22;40342;52.998;5.862;2023-04-15T01:01:34;7.30;99.90
54431;DHT22;40342;52.998;5.862;2023-04-15T01:04:00;7.30;99.90
54431;DHT22;40342;52.998;5.862;2023-04-15T01:06:25;7.30;99.90
54431;DHT22;40342;52.998;5.862;2023-04-15T01:08:56;7.20;99.90
54431;DHT22;40342;52.998;5.862;2023-04-15T01:11:22;7.20;99.90
54431;DHT22;40342;52.998;5.862;2023-04-15T01:13:49;7.20;99.90
54431;DHT22;40342;52.998;5.862;2023-04-15T01:16:15;7.20;99.90
54431;DHT22;40342;52.998;5.862;2023-04-15T01:18:41;7.20;99.90
54431;DHT22;40342;52.998;5.862;2023-04-15T01:21:07;7.20;99.90
54431;DHT22;40342;52.998;5.862;2023-04-15T01:23:35;7.20;99.90
54431;DHT22;40342;52.998;5.862;2023-04-15T01:26:03;7.10;99.90
54431;DHT22;40342;52.998;5.862;2023-04-15T01:28:29;7.10;99.90
54431;DHT22;40342;52.998;5.862;2023-04-15T01:31:14;7.00;99.90
54431;DHT22;40342;52.998;5.862;2023-04-15T01:33:41;7.00;99.90
54431;DHT22;40342;52.998;5.862;2023-04-15T01:36:08;7.00;99.90
54431;DHT22;40342;52.998;5.862;2023-04-15T01:38:35;7.00;99.90
54431;DHT22;40342;52.998;5.862;2023-04-15T01:41:01;7.00;99.90
54431;DHT22;40342;52.998;5.862;2023-04-15T01:43:28;7.00;99.90
54431;DHT22;40342;52.998;5.862;2023-04-15T01:45:54;6.90;99.90
54431;DHT22;40342;52.998;5.862;2023-04-15T01:48:21;6.90;99.90
54431;DHT22;40342;52.998;5.862;2023-04-15T01:50:46;6.90;99.90
54431;DHT22;40342;52.998;5.862;2023-04-15T01:53:12;6.80;99.90
54431;DHT22;40342;52.998;5.862;2023-04-15T01:55:37;6.80;99.90
54431;DHT22;40342;52.998;5.862;2023-04-15T01:58:03;6.80;99.90
54431;DHT22;40342;52.998;5.862;2023-04-15T02:00:29;6.80;99.90
54431;DHT22;40342;52.998;5.862;2023-04-15T02:02:57;6.70;99.90
54431;DHT22;40342;52.998;5.862;2023-04-15T02:05:23;6.70;99.90
54431;DHT22;40342;52.998;5.862;2023-04-15T02:07:49;6.70;99.90
54431;DHT22;40342;52.998;5.862;2023-04-15T02:10:15;6.70;99.90
54431;DHT22;40342;52.998;5.862;2023-04-15T02:12:41;6.70;99.90
54431;DHT22;40342;52.998;5.862;2023-04-15T02:15:07;6.70;99.90
54431;DHT22;40342;52.998;5.862;2023-04-15T02:17:34;6.60;99.90
54431;DHT22;40342;52.998;5.862;2023-04-15T02:20:00;6.60;99.90
54431;DHT22;40342;52.998;5.862;2023-04-15T02:22:26;6.60;99.90
54431;DHT22;40342;52.998;5.862;2023-04-15T02:24:52;6.60;99.90
54431;DHT22;40342;52.998;5.862;2023-04-15T02:27:18;6.60;99.90
54431;DHT22;40342;52.998;5.862;2023-04-15T02:29:44;6.50;99.90
54431;DHT22;40342;52.998;5.862;2023-04-15T02:32:13;6.50;99.90
54431;DHT22;40342;52.998;5.862;2023-04-15T02:34:40;6.50;99.90
54431;DHT22;40342;52.998;5.862;2023-04-15T02:37:07;6.40;99.90
54431;DHT22;40342;52.998;5.862;2023-04-15T02:39:33;6.50;99.90
54431;DHT22;40342;52.998;5.862;2023-04-15T02:41:59;6.40;99.90
54431;DHT22;40342;52.998;5.862;2023-04-15T02:44:25;6.40;99.90
54431;DHT22;40342;52.998;5.862;2023-04-15T02:46:52;6.40;99.90
54431;DHT22;40342;52.998;5.862;2023-04-15T02:49:19;6.40;99.90
54431;DHT22;40342;52.998;5.862;2023-04-15T02:51:45;6.30;99.90
54431;DHT22;40342;52.998;5.862;2023-04-15T02:54:23;6.30;99.90
54431;DHT22;40342;52.998;5.862;2023-04-15T02:56:49;6.30;99.90
54431;DHT22;40342;52.998;5.862;2023-04-15T02:59:15;6.30;99.90
54431;DHT22;40342;52.998;5.862;2023-04-15T03:01:41;6.30;99.90
54431;DHT22;40342;52.998;5.862;2023-04-15T03:04:06;6.30;99.90
54431;DHT22;40342;52.998;5.862;2023-04-15T03:06:33;6.30;99.90
54431;DHT22;40342;52.998;5.862;2023-04-15T03:08:59;6.20;99.90
54431;DHT22;40342;52.998;5.862;2023-04-15T03:11:27;6.20;99.90
54431;DHT22;40342;52.998;5.862;2023-04-15T03:13:53;6.20;99.90
54431;DHT22;40342;52.998;5.862;2023-04-15T03:16:18;6.20;99.90
54431;DHT22;40342;52.998;5.862;2023-04-15T03:18:44;6.10;99.90
54431;DHT22;40342;52.998;5.862;2023-04-15T03:21:09;6.10;99.90
54431;DHT22;40342;52.998;5.862;2023-04-15T03:23:35;6.10;99.90
54431;DHT22;40342;52.998;5.862;2023-04-15T03:26:01;6.10;99.90
54431;DHT22;40342;52.998;5.862;2023-04-15T03:28:27;6.10;99.90
54431;DHT22;40342;52.998;5.862;2023-04-15T03:30:54;6.00;99.90
54431;DHT22;40342;52.998;5.862;2023-04-15T03:33:19;6.00;99.90
54431;DHT22;40342;52.998;5.862;2023-04-15T03:35:45;6.00;99.90
54431;DHT22;40342;52.998;5.862;2023-04-15T03:38:10;6.00;99.90
54431;DHT22;40342;52.998;5.862;2023-04-15T03:40:37;6.00;99.90
54431;DHT22;40342;52.998;5.862;2023-04-15T03:43:02;6.00;99.90
54431;DHT22;40342;52.998;5.862;2023-04-15T03:45:28;5.90;99.90
54431;DHT22;40342;52.998;5.862;2023-04-15T03:47:54;5.90;99.90
54431;DHT22;40342;52.998;5.862;2023-04-15T03:50:19;5.90;99.90
54431;DHT22;40342;52.998;5.862;2023-04-15T03:52:45;5.90;99.90
54431;DHT22;40342;52.998;5.862;2023-04-15T03:55:10;5.90;99.90
54431;DHT22;40342;52.998;5.862;2023-04-15T03:57:36;5.80;99.90
54431;DHT22;40342;52.998;5.862;2023-04-15T04:00:08;5.90;99.90
54431;DHT22;40342;52.998;5.862;2023-04-15T04:02:34;5.90;99.90
54431;DHT22;40342;52.998;5.862;2023-04-15T04:05:00;5.80;99.90
54431;DHT22;40342;52.998;5.862;2023-04-15T04:07:25;5.80;99.90
54431;DHT22;40342;52.998;5.862;2023-04-15T04:09:51;5.80;99.90
54431;DHT22;40342;52.998;5.862;2023-04-15T04:12:16;5.80;99.90
54431;DHT22;40342;52.998;5.862;2023-04-15T04:14:42;5.80;99.90
54431;DHT22;40342;52.998;5.862;2023-04-15T04:17:08;5.80;99.90
54431;DHT22;40342;52.998;5.862;2023-04-15T04:19:34;5.80;99.90
54431;DHT22;40342;52.998;5.862;2023-04-15T04:21:59;5.80;99.90
54431;DHT22;40342;52.998;5.862;2023-04-15T04:24:25;5.80;99.90
54431;DHT22;40342;52.998;5.862;2023-04-15T04:26:51;5.80;99.90
54431;DHT22;40342;52.998;5.862;2023-04-15T04:29:17;5.80;99.90
54431;DHT22;40342;52.998;5.862;2023-04-15T04:31:42;5.80;99.90
54431;DHT22;40342;52.998;5.862;2023-04-15T04:34:08;5.80;99.90
54431;DHT22;40342;52.998;5.862;2023-04-15T04:36:33;5.70;99.90
54431;DHT22;40342;52.998;5.862;2023-04-15T04:38:59;5.70;99.90
54431;DHT22;40342;52.998;5.862;2023-04-15T04:41:25;5.70;99.90
54431;DHT22;40342;52.998;5.862;2023-04-15T04:43:51;5.60;99.90
54431;DHT22;40342;52.998;5.862;2023-04-15T04:46:16;5.60;99.90
54431;DHT22;40342;52.998;5.862;2023-04-15T04:48:42;5.60;99.90
54431;DHT22;40342;52.998;5.862;2023-04-15T04:51:08;5.60;99.90
54431;DHT22;40342;52.998;5.862;2023-04-15T04:53:34;5.60;99.90
54431;DHT22;40342;52.998;5.862;2023-04-15T04:56:02;5.60;99.90
54431;DHT22;40342;52.998;5.862;2023-04-15T04:58:27;5.60;99.90
54431;DHT22;40342;52.998;5.862;2023-04-15T05:00:53;5.60;99.90
54431;DHT22;40342;52.998;5.862;2023-04-15T05:03:18;5.60;99.90
54431;DHT22;40342;52.998;5.862;2023-04-15T05:05:44;5.60;99.90
54431;DHT22;40342;52.998;5.862;2023-04-15T05:08:10;5.60;99.90
54431;DHT22;40342;52.998;5.862;2023-04-15T05:10:35;5.60;99.90
54431;DHT22;40342;52.998;5.862;2023-04-15T05:13:01;5.60;99.90
54431;DHT22;40342;52.998;5.862;2023-04-15T05:15:26;5.60;99.90
54431;DHT22;40342;52.998;5.862;2023-04-15T05:17:52;5.50;99.90
54431;DHT22;40342;52.998;5.862;2023-04-15T05:20:18;5.60;99.90
54431;DHT22;40342;52.998;5.862;2023-04-15T05:22:43;5.50;99.90
54431;DHT22;40342;52.998;5.862;2023-04-15T05:25:09;5.50;99.90
54431;DHT22;40342;52.998;5.862;2023-04-15T05:27:34;5.50;99.90
54431;DHT22;40342;52.998;5.862;2023-04-15T05:30:00;5.50;99.90
54431;DHT22;40342;52.998;5.862;2023-04-15T05:32:26;5.50;99.90
54431;DHT22;40342;52.998;5.862;2023-04-15T05:34:51;5.50;99.90
54431;DHT22;40342;52.998;5.862;2023-04-15T05:37:17;5.50;99.90
54431;DHT22;40342;52.998;5.862;2023-04-15T05:39:45;5.50;99.90
54431;DHT22;40342;52.998;5.862;2023-04-15T05:42:11;5.40;99.90
54431;DHT22;40342;52.998;5.862;2023-04-15T05:44:36;5.50;99.90
54431;DHT22;40342;52.998;5.862;2023-04-15T05:47:02;5.50;99.90
54431;DHT22;40342;52.998;5.862;2023-04-15T05:49:28;5.50;99.90
54431;DHT22;40342;52.998;5.862;2023-04-15T05:51:54;5.50;99.90
54431;DHT22;40342;52.998;5.862;2023-04-15T05:54:19;5.50;99.90
54431;DHT22;40342;52.998;5.862;2023-04-15T05:56:47;5.60;99.90
54431;DHT22;40342;52.998;5.862;2023-04-15T05:59:13;5.60;99.90
54431;DHT22;40342;52.998;5.862;2023-04-15T06:01:38;5.70;99.90
54431;DHT22;40342;52.998;5.862;2023-04-15T06:04:04;5.70;99.90
54431;DHT22;40342;52.998;5.862;2023-04-15T06:06:30;5.70;99.90
54431;DHT22;40342;52.998;5.862;2023-04-15T06:08:57;5.80;99.90
54431;DHT22;40342;52.998;5.862;2023-04-15T06:11:26;5.90;99.90
54431;DHT22;40342;52.998;5.862;2023-04-15T06:13:51;5.90;99.90
54431;DHT22;40342;52.998;5.862;2023-04-15T06:16:17;6.00;99.90
54431;DHT22;40342;52.998;5.862;2023-04-15T06:18:42;6.00;99.90
54431;DHT22;40342;52.998;5.862;2023-04-15T06:21:08;6.10;99.90
54431;DHT22;40342;52.998;5.862;2023-04-15T06:23:34;6.20;99.90
54431;DHT22;40342;52.998;5.862;2023-04-15T06:26:01;6.30;99.90
54431;DHT22;40342;52.998;5.862;2023-04-15T06:28:26;6.30;99.90
54431;DHT22;40342;52.998;5.862;2023-04-15T06:30:52;6.40;99.90
54431;DHT22;40342;52.998;5.862;2023-04-15T06:33:18;6.50;99.90
54431;DHT22;40342;52.998;5.862;2023-04-15T06:35:44;6.50;99.90
54431;DHT22;40342;52.998;5.862;2023-04-15T06:38:10;6.60;99.90
54431;DHT22;40342;52.998;5.862;2023-04-15T06:40:35;6.70;99.90
54431;DHT22;40342;52.998;5.862;2023-04-15T06:43:01;6.80;99.90
54431;DHT22;40342;52.998;5.862;2023-04-15T06:45:26;6.80;99.90
54431;DHT22;40342;52.998;5.862;2023-04-15T06:47:52;6.90;99.90
54431;DHT22;40342;52.998;5.862;2023-04-15T06:50:18;7.00;99.90
54431;DHT22;40342;52.998;5.862;2023-04-15T06:52:43;7.10;99.90
54431;DHT22;40342;52.998;5.862;2023-04-15T06:55:09;7.20;99.90
54431;DHT22;40342;52.998;5.862;2023-04-15T06:57:34;7.30;99.90
54431;DHT22;40342;52.998;5.862;2023-04-15T07:00:00;7.30;99.90
54431;DHT22;40342;52.998;5.862;2023-04-15T07:02:26;7.40;99.90
54431;DHT22;40342;52.998;5.862;2023-04-15T07:04:51;7.50;99.90
54431;DHT22;40342;52.998;5.862;2023-04-15T07:07:17;7.50;99.90
54431;DHT22;40342;52.998;5.862;2023-04-15T07:09:43;7.60;99.90
54431;DHT22;40342;52.998;5.862;2023-04-15T07:12:09;7.70;99.90
54431;DHT22;40342;52.998;5.862;2023-04-15T07:14:34;7.70;99.90
54431;DHT22;40342;52.998;5.862;2023-04-15T07:17:00;7.80;99.90
54431;DHT22;40342;52.998;5.862;2023-04-15T07:19:26;7.90;99.90
54431;DHT22;40342;52.998;5.862;2023-04-15T07:21:52;8.00;99.90
54431;DHT22;40342;52.998;5.862;2023-04-15T07:24:17;8.10;99.90
54431;DHT22;40342;52.998;5.862;2023-04-15T07:26:45;8.20;99.90
54431;DHT22;40342;52.998;5.862;2023-04-15T07:29:10;8.30;99.90
54431;DHT22;40342;52.998;5.862;2023-04-15T07:31:36;8.40;99.90
54431;DHT22;40342;52.998;5.862;2023-04-15T07:34:06;8.50;99.90
54431;DHT22;40342;52.998;5.862;2023-04-15T07:36:31;8.50;99.90
54431;DHT22;40342;52.998;5.862;2023-04-15T07:38:57;8.70;99.90
54431;DHT22;40342;52.998;5.862;2023-04-15T07:41:22;8.70;99.90
54431;DHT22;40342;52.998;5.862;2023-04-15T07:43:48;8.80;99.90
54431;DHT22;40342;52.998;5.862;2023-04-15T07:46:14;8.90;99.90
54431;DHT22;40342;52.998;5.862;2023-04-15T07:48:40;9.00;99.90
54431;DHT22;40342;52.998;5.862;2023-04-15T07:51:07;9.10;99.90
54431;DHT22;40342;52.998;5.862;2023-04-15T07:53:32;9.10;99.90
54431;DHT22;40342;52.998;5.862;2023-04-15T07:55:58;9.20;99.90
54431;DHT22;40342;52.998;5.862;2023-04-15T07:58:24;9.30;99.90
54431;DHT22;40342;52.998;5.862;2023-04-15T08:00:50;9.30;99.90
54431;DHT22;40342;52.998;5.862;2023-04-15T08:03:16;9.30;99.90
54431;DHT22;40342;52.998;5.862;2023-04-15T08:05:41;9.40;99.90
54431;DHT22;40342;52.998;5.862;2023-04-15T08:08:07;9.50;99.90
54431;DHT22;40342;52.998;5.862;2023-04-15T08:10:33;9.50;99.90
54431;DHT22;40342;52.998;5.862;2023-04-15T08:12:59;9.50;99.90
54431;DHT22;40342;52.998;5.862;2023-04-15T08:15:25;9.50;99.90
54431;DHT22;40342;52.998;5.862;2023-04-15T08:17:51;9.50;99.90
54431;DHT22;40342;52.998;5.862;2023-04-15T08:20:17;9.50;99.90
54431;DHT22;40342;52.998;5.862;2023-04-15T08:22:43;9.60;99.90
54431;DHT22;40342;52.998;5.862;2023-04-15T08:25:08;9.60;99.90
54431;DHT22;40342;52.998;5.862;2023-04-15T08:27:34;9.70;99.90
54431;DHT22;40342;52.998;5.862;2023-04-15T08:30:00;9.70;99.90
54431;DHT22;40342;52.998;5.862;2023-04-15T08:32:26;9.70;99.90
54431;DHT22;40342;52.998;5.862;2023-04-15T08:34:52;9.80;99.90
54431;DHT22;40342;52.998;5.862;2023-04-15T08:37:17;9.80;99.90
54431;DHT22;40342;52.998;5.862;2023-04-15T08:39:43;9.90;99.90
54431;DHT22;40342;52.998;5.862;2023-04-15T08:42:16;10.00;99.90
54431;DHT22;40342;52.998;5.862;2023-04-15T08:44:42;10.00;99.90
54431;DHT22;40342;52.998;5.862;2023-04-15T08:47:12;10.10;99.90
54431;DHT22;40342;52.998;5.862;2023-04-15T08:49:42;10.10;99.90
54431;DHT22;40342;52.998;5.862;2023-04-15T08:52:08;10.20;99.90
54431;DHT22;40342;52.998;5.862;2023-04-15T08:54:34;10.20;99.90
54431;DHT22;40342;52.998;5.862;2023-04-15T08:56:59;10.30;99.90
54431;DHT22;40342;52.998;5.862;2023-04-15T08:59:27;10.30;99.90
54431;DHT22;40342;52.998;5.862;2023-04-15T09:01:55;10.40;99.90
54431;DHT22;40342;52.998;5.862;2023-04-15T09:04:21;10.40;99.90
54431;DHT22;40342;52.998;5.862;2023-04-15T09:06:47;10.50;99.90
54431;DHT22;40342;52.998;5.862;2023-04-15T09:09:12;10.50;99.90
54431;DHT22;40342;52.998;5.862;2023-04-15T09:11:38;10.50;99.90
54431;DHT22;40342;52.998;5.862;2023-04-15T09:14:04;10.60;99.90
54431;DHT22;40342;52.998;5.862;2023-04-15T09:16:30;10.60;99.90
54431;DHT22;40342;52.998;5.862;2023-04-15T09:18:56;10.60;99.90
54431;DHT22;40342;52.998;5.862;2023-04-15T09:21:22;10.60;99.90
54431;DHT22;40342;52.998;5.862;2023-04-15T09:23:59;10.60;99.90
54431;DHT22;40342;52.998;5.862;2023-04-15T09:26:39;10.60;99.90
54431;DHT22;40342;52.998;5.862;2023-04-15T09:29:09;10.50;99.90
54431;DHT22;40342;52.998;5.862;2023-04-15T09:31:37;10.50;99.90
54431;DHT22;40342;52.998;5.862;2023-04-15T09:34:03;10.50;99.90
54431;DHT22;40342;52.998;5.862;2023-04-15T09:36:34;10.60;99.90
54431;DHT22;40342;52.998;5.862;2023-04-15T09:39:01;10.60;99.90
54431;DHT22;40342;52.998;5.862;2023-04-15T09:41:27;10.60;99.90
54431;DHT22;40342;52.998;5.862;2023-04-15T09:43:53;10.50;99.90
54431;DHT22;40342;52.998;5.862;2023-04-15T09:46:18;10.50;99.90
54431;DHT22;40342;52.998;5.862;2023-04-15T09:48:44;10.50;99.90
54431;DHT22;40342;52.998;5.862;2023-04-15T09:51:10;10.50;99.90
54431;DHT22;40342;52.998;5.862;2023-04-15T09:53:36;10.50;99.90
54431;DHT22;40342;52.998;5.862;2023-04-15T09:56:03;10.60;99.90
54431;DHT22;40342;52.998;5.862;2023-04-15T09:58:33;10.60;99.90
54431;DHT22;40342;52.998;5.862;2023-04-15T10:01:03;10.70;99.90
54431;DHT22;40342;52.998;5.862;2023-04-15T10:03:31;10.80;99.90
54431;DHT22;40342;52.998;5.862;2023-04-15T10:05:59;10.90;99.90
54431;DHT22;40342;52.998;5.862;2023-04-15T10:08:31;10.90;99.90
54431;DHT22;40342;52.998;5.862;2023-04-15T10:11:00;10.90;99.90
54431;DHT22;40342;52.998;5.862;2023-04-15T10:13:29;10.90;99.90
54431;DHT22;40342;52.998;5.862;2023-04-15T10:16:12;11.00;99.90
54431;DHT22;40342;52.998;5.862;2023-04-15T10:18:42;11.00;99.90
54431;DHT22;40342;52.998;5.862;2023-04-15T10:21:08;11.10;99.90
54431;DHT22;40342;52.998;5.862;2023-04-15T10:23:34;11.20;99.90
54431;DHT22;40342;52.998;5.862;2023-04-15T10:26:01;11.30;99.90
54431;DHT22;40342;52.998;5.862;2023-04-15T10:28:28;11.40;99.90
54431;DHT22;40342;52.998;5.862;2023-04-15T10:30:54;11.60;99.90
54431;DHT22;40342;52.998;5.862;2023-04-15T10:33:22;11.70;99.90
54431;DHT22;40342;52.998;5.862;2023-04-15T10:35:48;11.70;99.90
54431;DHT22;40342;52.998;5.862;2023-04-15T10:38:39;11.70;99.90
54431;DHT22;40342;52.998;5.862;2023-04-15T10:41:22;11.80;99.90
54431;DHT22;40342;52.998;5.862;2023-04-15T10:46:43;12.00;99.90
54431;DHT22;40342;52.998;5.862;2023-04-15T10:49:11;12.10;99.90
54431;DHT22;40342;52.998;5.862;2023-04-15T10:51:45;12.20;99.90
54431;DHT22;40342;52.998;5.862;2023-04-15T10:57:07;12.10;99.90
54431;DHT22;40342;52.998;5.862;2023-04-15T10:59:38;12.10;99.90
54431;DHT22;40342;52.998;5.862;2023-04-15T11:02:38;12.00;99.90
54431;DHT22;40342;52.998;5.862;2023-04-15T11:05:04;11.90;99.90
54431;DHT22;40342;52.998;5.862;2023-04-15T11:07:40;11.90;99.90
54431;DHT22;40342;52.998;5.862;2023-04-15T11:12:57;11.80;99.90
54431;DHT22;40342;52.998;5.862;2023-04-15T11:20:47;11.60;99.90
54431;DHT22;40342;52.998;5.862;2023-04-15T11:26:00;11.40;99.90
54431;DHT22;40342;52.998;5.862;2023-04-15T11:28:28;11.40;99.90
54431;DHT22;40342;52.998;5.862;2023-04-15T11:30:55;11.30;99.90
54431;DHT22;40342;52.998;5.862;2023-04-15T11:33:22;11.20;99.90
54431;DHT22;40342;52.998;5.862;2023-04-15T11:35:48;11.20;99.90
54431;DHT22;40342;52.998;5.862;2023-04-15T11:38:14;11.10;99.90
54431;DHT22;40342;52.998;5.862;2023-04-15T11:40:41;11.10;99.90
54431;DHT22;40342;52.998;5.862;2023-04-15T11:45:34;11.00;99.90
54431;DHT22;40342;52.998;5.862;2023-04-15T11:48:10;11.00;99.90
54431;DHT22;40342;52.998;5.862;2023-04-15T11:50:37;11.00;99.90
54431;DHT22;40342;52.998;5.862;2023-04-15T11:53:06;11.10;99.90
54431;DHT22;40342;52.998;5.862;2023-04-15T11:55:52;11.00;99.90
54431;DHT22;40342;52.998;5.862;2023-04-15T11:58:23;11.00;99.90
54431;DHT22;40342;52.998;5.862;2023-04-15T12:03:25;11.00;99.90
54431;DHT22;40342;52.998;5.862;2023-04-15T12:08:56;10.90;99.90
54431;DHT22;40342;52.998;5.862;2023-04-15T12:13:54;10.90;99.90
54431;DHT22;40342;52.998;5.862;2023-04-15T12:16:22;10.80;99.90
54431;DHT22;40342;52.998;5.862;2023-04-15T12:18:52;10.80;99.90
54431;DHT22;40342;52.998;5.862;2023-04-15T12:21:24;10.80;99.90
54431;DHT22;40342;52.998;5.862;2023-04-15T12:23:52;10.70;99.90
54431;DHT22;40342;52.998;5.862;2023-04-15T12:26:28;10.70;99.90
54431;DHT22;40342;52.998;5.862;2023-04-15T12:29:15;10.70;99.90
54431;DHT22;40342;52.998;5.862;2023-04-15T12:31:52;10.70;99.90
54431;DHT22;40342;52.998;5.862;2023-04-15T12:34:28;10.60;99.90
54431;DHT22;40342;52.998;5.862;2023-04-15T12:36:54;10.60;99.90
54431;DHT22;40342;52.998;5.862;2023-04-15T12:39:22;10.60;99.90
54431;DHT22;40342;52.998;5.862;2023-04-15T12:41:48;10.60;99.90
54431;DHT22;40342;52.998;5.862;2023-04-15T12:44:13;10.60;99.90
54431;DHT22;40342;52.998;5.862;2023-04-15T12:46:39;10.60;99.90
54431;DHT22;40342;52.998;5.862;2023-04-15T12:49:05;10.60;99.90
54431;DHT22;40342;52.998;5.862;2023-04-15T12:51:31;10.50;99.90
54431;DHT22;40342;52.998;5.862;2023-04-15T12:53:57;10.50;99.90
54431;DHT22;40342;52.998;5.862;2023-04-15T12:56:22;10.50;99.90
54431;DHT22;40342;52.998;5.862;2023-04-15T12:58:48;10.50;99.90
54431;DHT22;40342;52.998;5.862;2023-04-15T13:01:14;10.40;99.90
54431;DHT22;40342;52.998;5.862;2023-04-15T13:03:40;10.40;99.90
54431;DHT22;40342;52.998;5.862;2023-04-15T13:06:05;10.40;99.90
54431;DHT22;40342;52.998;5.862;2023-04-15T13:08:31;10.30;99.90
54431;DHT22;40342;52.998;5.862;2023-04-15T13:10:57;10.20;99.90
54431;DHT22;40342;52.998;5.862;2023-04-15T13:13:23;10.20;99.90
54431;DHT22;40342;52.998;5.862;2023-04-15T13:15:48;10.10;99.90
54431;DHT22;40342;52.998;5.862;2023-04-15T13:18:14;10.10;99.90
54431;DHT22;40342;52.998;5.862;2023-04-15T13:20:40;10.10;99.90
54431;DHT22;40342;52.998;5.862;2023-04-15T13:23:06;10.10;99.90
54431;DHT22;40342;52.998;5.862;2023-04-15T13:25:31;10.10;99.90
54431;DHT22;40342;52.998;5.862;2023-04-15T13:27:57;10.00;99.90
54431;DHT22;40342;52.998;5.862;2023-04-15T13:30:23;9.90;99.90
54431;DHT22;40342;52.998;5.862;2023-04-15T13:32:49;10.00;99.90
54431;DHT22;40342;52.998;5.862;2023-04-15T13:35:15;9.90;99.90
54431;DHT22;40342;52.998;5.862;2023-04-15T13:37:41;10.00;99.90
54431;DHT22;40342;52.998;5.862;2023-04-15T13:40:07;9.90;99.90
54431;DHT22;40342;52.998;5.862;2023-04-15T13:42:33;9.90;99.90
54431;DHT22;40342;52.998;5.862;2023-04-15T13:44:58;9.90;99.90
54431;DHT22;40342;52.998;5.862;2023-04-15T13:47:24;9.90;99.90
54431;DHT22;40342;52.998;5.862;2023-04-15T13:49:50;9.90;99.90
54431;DHT22;40342;52.998;5.862;2023-04-15T13:52:17;9.90;99.90
54431;DHT22;40342;52.998;5.862;2023-04-15T13:54:42;9.80;99.90
54431;DHT22;40342;52.998;5.862;2023-04-15T13:57:08;9.80;99.90
54431;DHT22;40342;52.998;5.862;2023-04-15T13:59:34;9.80;99.90
54431;DHT22;40342;52.998;5.862;2023-04-15T14:01:59;9.80;99.90
54431;DHT22;40342;52.998;5.862;2023-04-15T14:04:25;9.80;99.90
54431;DHT22;40342;52.998;5.862;2023-04-15T14:06:51;9.80;99.90
54431;DHT22;40342;52.998;5.862;2023-04-15T14:09:16;9.90;99.90
54431;DHT22;40342;52.998;5.862;2023-04-15T14:11:42;9.90;99.90
54431;DHT22;40342;52.998;5.862;2023-04-15T14:14:08;10.00;99.90
54431;DHT22;40342;52.998;5.862;2023-04-15T14:16:33;10.00;99.90
54431;DHT22;40342;52.998;5.862;2023-04-15T14:19:01;10.00;99.90
54431;DHT22;40342;52.998;5.862;2023-04-15T14:21:26;10.10;99.90
54431;DHT22;40342;52.998;5.862;2023-04-15T14:23:53;10.10;99.90
54431;DHT22;40342;52.998;5.862;2023-04-15T14:26:19;10.10;99.90
54431;DHT22;40342;52.998;5.862;2023-04-15T14:28:44;10.20;99.90
54431;DHT22;40342;52.998;5.862;2023-04-15T14:31:10;10.20;99.90
54431;DHT22;40342;52.998;5.862;2023-04-15T14:33:36;10.20;99.90
54431;DHT22;40342;52.998;5.862;2023-04-15T14:36:01;10.20;99.90
54431;DHT22;40342;52.998;5.862;2023-04-15T14:38:27;10.20;99.90
54431;DHT22;40342;52.998;5.862;2023-04-15T14:40:53;10.20;99.90
54431;DHT22;40342;52.998;5.862;2023-04-15T14:43:19;10.20;99.90
54431;DHT22;40342;52.998;5.862;2023-04-15T14:45:45;10.20;99.90
54431;DHT22;40342;52.998;5.862;2023-04-15T14:48:11;10.20;99.90
54431;DHT22;40342;52.998;5.862;2023-04-15T14:50:37;10.20;99.90
54431;DHT22;40342;52.998;5.862;2023-04-15T14:53:03;10.20;99.90
54431;DHT22;40342;52.998;5.862;2023-04-15T14:55:28;10.20;99.90
54431;DHT22;40342;52.998;5.862;2023-04-15T14:57:54;10.20;99.90
54431;DHT22;40342;52.998;5.862;2023-04-15T15:00:20;10.10;99.90
54431;DHT22;40342;52.998;5.862;2023-04-15T15:02:45;10.10;99.90
54431;DHT22;40342;52.998;5.862;2023-04-15T15:05:11;10.10;99.90
54431;DHT22;40342;52.998;5.862;2023-04-15T15:07:38;10.00;99.90
54431;DHT22;40342;52.998;5.862;2023-04-15T15:10:23;10.10;99.90
54431;DHT22;40342;52.998;5.862;2023-04-15T15:13:45;10.00;99.90
54431;DHT22;40342;52.998;5.862;2023-04-15T15:22:54;10.00;99.90
54431;DHT22;40342;52.998;5.862;2023-04-15T15:38:10;9.90;99.90
54431;DHT22;40342;52.998;5.862;2023-04-15T15:41:13;10.00;99.90
54431;DHT22;40342;52.998;5.862;2023-04-15T15:43:57;9.90;99.90
54431;DHT22;40342;52.998;5.862;2023-04-15T15:49:45;9.80;99.90
54431;DHT22;40342;52.998;5.862;2023-04-15T16:06:54;9.80;99.90
54431;DHT22;40342;52.998;5.862;2023-04-15T16:09:39;9.70;99.90
54431;DHT22;40342;52.998;5.862;2023-04-15T16:22:47;9.50;99.90
54431;DHT22;40342;52.998;5.862;2023-04-15T16:39:19;9.40;99.90
54431;DHT22;40342;52.998;5.862;2023-04-15T16:49:06;9.30;99.90
54431;DHT22;40342;52.998;5.862;2023-04-15T16:52:28;9.30;99.90
54431;DHT22;40342;52.998;5.862;2023-04-15T16:55:31;9.30;99.90
54431;DHT22;40342;52.998;5.862;2023-04-15T16:58:34;9.20;99.90
54431;DHT22;40342;52.998;5.862;2023-04-15T17:03:44;9.20;99.90
54431;DHT22;40342;52.998;5.862;2023-04-15T17:09:50;9.20;99.90
54431;DHT22;40342;52.998;5.862;2023-04-15T17:19:20;9.10;99.90
54431;DHT22;40342;52.998;5.862;2023-04-15T17:25:26;9.10;99.90
54431;DHT22;40342;52.998;5.862;2023-04-15T17:28:10;9.00;99.90
54431;DHT22;40342;52.998;5.862;2023-04-15T17:30:54;9.00;99.90
54431;DHT22;40342;52.998;5.862;2023-04-15T17:33:38;9.00;99.90
54431;DHT22;40342;52.998;5.862;2023-04-15T17:36:41;9.00;99.90